createdAt,value
2019-01-23T00:00:31.556Z,100191.13
2019-01-23T00:03:00.233Z,100184.89
2019-01-23T00:05:28.875Z,100186.54
2019-01-23T00:07:57.430Z,100184.09
2019-01-23T00:10:25.956Z,100183.66
2019-01-23T00:12:54.505Z,100171.30
2019-01-23T00:15:23.090Z,100171.42
2019-01-23T00:17:51.944Z,100169.28
2019-01-23T00:20:20.483Z,100167.42
2019-01-23T00:22:49.074Z,100166.98
2019-01-23T00:25:17.968Z,100169.31
2019-01-23T00:27:46.565Z,100161.66
2019-01-23T00:30:15.983Z,100164.69
2019-01-23T00:32:44.551Z,100166.36
2019-01-23T00:35:13.192Z,100162.56
2019-01-23T00:37:41.786Z,100163.94
2019-01-23T00:40:13.041Z,100160.61
2019-01-23T00:42:41.615Z,100161.23
2019-01-23T00:45:12.233Z,100160.70
2019-01-23T00:47:41.155Z,100154.66
2019-01-23T00:50:11.035Z,100154.77
2019-01-23T00:52:39.607Z,100153.38
2019-01-23T00:55:11.208Z,100144.82
2019-01-23T00:57:39.772Z,100142.97
2019-01-23T01:00:17.674Z,100141.27
2019-01-23T01:02:46.423Z,100137.36
2019-01-23T01:05:16.143Z,100132.16
2019-01-23T01:07:44.696Z,100135.90
2019-01-23T01:10:15.884Z,100133.83
2019-01-23T01:12:44.486Z,100132.08
2019-01-23T01:15:13.705Z,100130.02
2019-01-23T01:17:42.403Z,100124.64
2019-01-23T01:20:12.974Z,100124.55
2019-01-23T01:22:41.608Z,100128.64
2019-01-23T01:25:12.486Z,100129.02
2019-01-23T01:27:41.051Z,100121.58
2019-01-23T01:30:15.542Z,100118.53
2019-01-23T01:32:44.096Z,100121.02
2019-01-23T01:35:12.642Z,100124.27
2019-01-23T01:37:41.235Z,100122.31
2019-01-23T01:40:15.060Z,100127.18
2019-01-23T01:42:43.663Z,100122.71
2019-01-23T01:45:13.967Z,100119.39
2019-01-23T01:47:42.636Z,100120.86
2019-01-23T01:50:16.664Z,100111.91
2019-01-23T01:52:45.232Z,100112.86
2019-01-23T01:55:13.808Z,100111.19
2019-01-23T01:57:42.398Z,100107.26
2019-01-23T02:00:16.771Z,100109.89
2019-01-23T02:02:45.264Z,100109.98
2019-01-23T02:05:13.837Z,100101.17
2019-01-23T02:07:42.340Z,100101.35
2019-01-23T02:10:18.689Z,100094.91
2019-01-23T02:12:47.267Z,100094.37
2019-01-23T02:15:16.217Z,100095.96
2019-01-23T02:17:44.793Z,100088.03
2019-01-23T02:20:18.604Z,100079.69
2019-01-23T02:22:47.280Z,100087.01
2019-01-23T02:25:15.938Z,100082.55
2019-01-23T02:27:45.586Z,100088.28
2019-01-23T02:30:17.109Z,100089.43
2019-01-23T02:32:45.705Z,100083.83
2019-01-23T02:35:14.410Z,100082.55
2019-01-23T02:37:42.902Z,100083.66
2019-01-23T02:40:14.261Z,100079.57
2019-01-23T02:42:43.109Z,100081.62
2019-01-23T02:45:11.704Z,100081.98
2019-01-23T02:47:40.173Z,100075.14
2019-01-23T02:50:10.590Z,100073.16
2019-01-23T02:52:39.134Z,100075.69
2019-01-23T02:55:09.693Z,100075.04
2019-01-23T02:57:38.288Z,100076.99
2019-01-23T03:00:12.353Z,100073.59
2019-01-23T03:02:40.930Z,100077.13
2019-01-23T03:05:12.276Z,100076.78
2019-01-23T03:07:40.852Z,100074.39
2019-01-23T03:10:11.979Z,100072.78
2019-01-23T03:12:40.544Z,100067.88
2019-01-23T03:15:12.093Z,100066.23
2019-01-23T03:17:40.728Z,100064.19
2019-01-23T03:20:11.514Z,100065.70
2019-01-23T03:22:40.128Z,100062.35
2019-01-23T03:25:10.127Z,100058.61
2019-01-23T03:27:38.699Z,100059.61
2019-01-23T03:30:10.763Z,100063.77
2019-01-23T03:32:39.321Z,100062.19
2019-01-23T03:35:09.751Z,100058.93
2019-01-23T03:37:38.443Z,100052.42
2019-01-23T03:40:13.027Z,100059.30
2019-01-23T03:42:41.895Z,100059.95
2019-01-23T03:45:11.875Z,100059.30
2019-01-23T03:47:40.576Z,100059.80
2019-01-23T03:50:12.031Z,100056.27
2019-01-23T03:52:40.551Z,100050.77
2019-01-23T03:55:10.664Z,100058.46
2019-01-23T03:57:39.310Z,100060.05
2019-01-23T04:00:15.943Z,100059.36
2019-01-23T04:02:44.545Z,100055.64
2019-01-23T04:05:13.650Z,100055.95
2019-01-23T04:07:42.251Z,100058.86
2019-01-23T04:10:13.386Z,100064.00
2019-01-23T04:12:41.945Z,100066.61
2019-01-23T04:15:12.867Z,100062.21
2019-01-23T04:17:41.695Z,100063.58
2019-01-23T04:20:12.840Z,100064.59
2019-01-23T04:22:41.697Z,100059.39
2019-01-23T04:25:10.685Z,100063.58
2019-01-23T04:27:39.204Z,100070.46
2019-01-23T04:30:13.511Z,100069.93
2019-01-23T04:32:42.170Z,100069.19
2019-01-23T04:35:10.728Z,100069.28
2019-01-23T04:37:39.285Z,100075.34
2019-01-23T04:40:10.338Z,100071.57
2019-01-23T04:42:38.903Z,100069.37
2019-01-23T04:45:10.785Z,100059.88
2019-01-23T04:47:39.360Z,100058.31
2019-01-23T04:50:10.362Z,100059.70
2019-01-23T04:52:40.541Z,100060.59
2019-01-23T04:55:09.100Z,100070.32
2019-01-23T04:57:37.781Z,100061.63
2019-01-23T05:00:12.597Z,100059.05
2019-01-23T05:02:41.181Z,100059.80
2019-01-23T05:05:09.912Z,100046.61
2019-01-23T05:07:38.455Z,100050.14
2019-01-23T05:10:07.304Z,100047.17
2019-01-23T05:12:35.942Z,100046.59
2019-01-23T05:15:06.467Z,100035.81
2019-01-23T05:17:35.101Z,100043.44
2019-01-23T05:20:05.200Z,100044.41
2019-01-23T05:22:33.727Z,100048.06
2019-01-23T05:25:02.306Z,100045.62
2019-01-23T05:27:30.822Z,100048.22
2019-01-23T05:29:59.428Z,100058.47
2019-01-23T05:32:27.954Z,100058.66
2019-01-23T05:34:56.681Z,100057.55
2019-01-23T05:37:25.230Z,100053.05
2019-01-23T05:39:53.789Z,100051.75
2019-01-23T05:42:22.335Z,100053.75
2019-01-23T05:44:50.848Z,100054.86
2019-01-23T05:47:19.375Z,100058.52
2019-01-23T05:49:48.035Z,100053.58
2019-01-23T05:52:16.508Z,100051.08
2019-01-23T05:54:45.103Z,100050.78
2019-01-23T05:57:13.640Z,100050.89
2019-01-23T05:59:42.295Z,100046.42
2019-01-23T06:02:10.897Z,100041.95
2019-01-23T06:04:39.404Z,100037.92
2019-01-23T06:07:10.948Z,100036.77
2019-01-23T06:09:39.375Z,100042.24
2019-01-23T06:12:08.004Z,100038.07
2019-01-23T06:14:36.555Z,100039.34
2019-01-23T06:17:05.195Z,100029.77
2019-01-23T06:19:33.793Z,100034.34
2019-01-23T06:22:02.949Z,100040.94
2019-01-23T06:24:31.526Z,100041.02
2019-01-23T06:27:00.152Z,100039.71
2019-01-23T06:29:28.726Z,100040.67
2019-01-23T06:31:57.147Z,100044.66
2019-01-23T06:34:25.693Z,100042.70
2019-01-23T06:36:54.270Z,100042.90
2019-01-23T06:39:23.071Z,100050.62
2019-01-23T06:41:52.042Z,100045.43
2019-01-23T06:44:20.595Z,100043.05
2019-01-23T06:46:49.150Z,100047.78
2019-01-23T06:49:17.655Z,100052.69
2019-01-23T06:51:46.201Z,100055.01
2019-01-23T06:54:14.855Z,100053.24
2019-01-23T06:56:43.345Z,100054.83
2019-01-23T06:59:12.163Z,100060.39
2019-01-23T07:01:40.704Z,100062.44
2019-01-23T07:04:09.219Z,100065.38
2019-01-23T07:06:37.775Z,100055.19
2019-01-23T07:09:08.421Z,100050.91
2019-01-23T07:11:36.956Z,100052.77
2019-01-23T07:14:05.842Z,100055.38
2019-01-23T07:16:34.474Z,100055.19
2019-01-23T07:19:03.110Z,100057.58
2019-01-23T07:21:31.668Z,100045.53
2019-01-23T07:24:00.399Z,100051.65
2019-01-23T07:26:29.001Z,100055.17
2019-01-23T07:28:57.535Z,100051.56
2019-01-23T07:31:26.156Z,100047.55
2019-01-23T07:33:54.803Z,100053.50
2019-01-23T07:36:23.805Z,100047.52
2019-01-23T07:38:52.458Z,100049.96
2019-01-23T07:41:21.133Z,100045.69
2019-01-23T07:43:49.789Z,100051.42
2019-01-23T07:46:18.370Z,100056.98
2019-01-23T07:48:46.909Z,100049.30
2019-01-23T07:51:15.747Z,100046.59
2019-01-23T07:53:44.474Z,100049.76
2019-01-23T07:56:13.119Z,100055.13
2019-01-23T07:58:41.751Z,100051.94
2019-01-23T08:01:10.353Z,100049.69
2019-01-23T08:03:38.961Z,100055.42
2019-01-23T08:06:08.096Z,100052.54
2019-01-23T08:08:36.650Z,100046.25
2019-01-23T08:11:05.297Z,100039.62
2019-01-23T08:13:35.301Z,100041.60
2019-01-23T08:16:03.929Z,100037.10
2019-01-23T08:18:33.007Z,100034.38
2019-01-23T08:21:01.630Z,100036.83
2019-01-23T08:23:30.190Z,100039.11
2019-01-23T08:25:58.705Z,100037.41
2019-01-23T08:28:27.348Z,100033.03
2019-01-23T08:30:56.073Z,100035.73
2019-01-23T08:33:24.744Z,100030.98
2019-01-23T08:35:53.283Z,100024.56
2019-01-23T08:38:21.854Z,100026.53
2019-01-23T08:40:50.631Z,100018.56
2019-01-23T08:43:19.611Z,100019.41
2019-01-23T08:45:48.898Z,100017.41
2019-01-23T08:48:17.469Z,100022.84
2019-01-23T08:50:46.172Z,100024.34
2019-01-23T08:53:14.787Z,100013.55
2019-01-23T08:55:43.231Z,100018.38
2019-01-23T08:58:11.707Z,100027.50
2019-01-23T09:00:45.720Z,100018.75
2019-01-23T09:03:10.629Z,100029.30
2019-01-23T09:05:39.262Z,100024.01
2019-01-23T09:08:07.864Z,100023.44
2019-01-23T09:10:36.551Z,100026.47
2019-01-23T09:13:05.572Z,100027.36
2019-01-23T09:15:34.250Z,100025.64
2019-01-23T09:18:02.809Z,100021.78
2019-01-23T09:20:31.348Z,100028.77
2019-01-23T09:22:59.822Z,100029.31
2019-01-23T09:25:28.501Z,100031.30
2019-01-23T09:27:56.983Z,100034.20
2019-01-23T09:30:37.690Z,100033.39
2019-01-23T09:33:25.596Z,100034.13
2019-01-23T09:36:00.019Z,100028.27
2019-01-23T09:38:37.300Z,100027.13
2019-01-23T09:41:20.839Z,100024.31
2019-01-23T09:44:08.976Z,100029.36
2019-01-23T09:46:46.957Z,100021.87
2019-01-23T09:49:21.427Z,100024.91
2019-01-23T09:52:02.343Z,100018.02
2019-01-23T09:54:30.931Z,100016.45
2019-01-23T09:56:59.547Z,100018.45
2019-01-23T09:59:28.139Z,100018.52
2019-01-23T10:01:56.711Z,100019.55
2019-01-23T10:04:25.295Z,100021.31
2019-01-23T10:06:54.508Z,100019.64
2019-01-23T10:09:23.122Z,100014.53
2019-01-23T10:11:51.694Z,100016.24
2019-01-23T10:14:20.657Z,100019.95
2019-01-23T10:16:49.504Z,100015.50
2019-01-23T10:19:18.065Z,100015.40
2019-01-23T10:21:47.028Z,100015.70
2019-01-23T10:24:15.626Z,100021.86
2019-01-23T10:26:44.319Z,100023.77
2019-01-23T10:29:12.919Z,100020.95
2019-01-23T10:31:41.823Z,100017.13
2019-01-23T10:34:10.594Z,100011.15
2019-01-23T10:36:39.477Z,100022.68
2019-01-23T10:39:08.781Z,100021.31
2019-01-23T10:41:37.352Z,100021.23
2019-01-23T10:44:05.937Z,100017.50
2019-01-23T10:46:34.608Z,100012.48
2019-01-23T10:49:03.393Z,100018.94
2019-01-23T10:51:32.063Z,100017.69
2019-01-23T10:54:00.601Z,100016.32
2019-01-23T10:56:29.263Z,100017.59
2019-01-23T10:58:57.851Z,100018.62
2019-01-23T11:01:26.382Z,100026.66
2019-01-23T11:03:54.951Z,100017.67
2019-01-23T11:06:23.578Z,100025.73
2019-01-23T11:08:52.258Z,100024.91
2019-01-23T11:11:20.948Z,100024.61
2019-01-23T11:13:49.557Z,100024.66
2019-01-23T11:16:18.138Z,100026.72
2019-01-23T11:18:46.722Z,100022.80
2019-01-23T11:21:15.372Z,100026.72
2019-01-23T11:23:43.927Z,100030.78
2019-01-23T11:26:12.559Z,100016.15
2019-01-23T11:28:41.043Z,100018.52
2019-01-23T11:31:09.527Z,100020.33
2019-01-23T11:33:38.173Z,100016.16
2019-01-23T11:36:06.714Z,100018.14
2019-01-23T11:38:35.559Z,100030.50
2019-01-23T11:41:04.757Z,100026.67
2019-01-23T11:43:33.234Z,100028.09
2019-01-23T11:46:01.818Z,100027.86
2019-01-23T11:48:30.367Z,100027.48
2019-01-23T11:50:58.967Z,100029.81
2019-01-23T11:53:27.570Z,100027.86
2019-01-23T11:55:56.219Z,100029.29
2019-01-23T11:58:24.735Z,100028.91
2019-01-23T12:00:53.358Z,100029.42
2019-01-23T12:03:21.986Z,100027.43
2019-01-23T12:05:50.648Z,100032.81
2019-01-23T12:08:19.105Z,100032.04
2019-01-23T12:10:47.674Z,100037.81
2019-01-23T12:13:16.208Z,100031.30
2019-01-23T12:15:44.899Z,100035.66
2019-01-23T12:18:14.154Z,100033.05
2019-01-23T12:20:42.754Z,100037.13
2019-01-23T12:23:11.366Z,100038.73
2019-01-23T12:25:40.036Z,100039.80
2019-01-23T12:28:08.713Z,100039.14
2019-01-23T12:30:37.379Z,100042.69
2019-01-23T12:33:06.052Z,100032.38
2019-01-23T12:35:34.725Z,100040.20
2019-01-23T12:38:03.372Z,100038.61
2019-01-23T12:40:32.013Z,100033.48
2019-01-23T12:43:00.687Z,100034.12
2019-01-23T12:45:29.777Z,100040.74
2019-01-23T12:47:58.386Z,100043.52
2019-01-23T12:50:29.804Z,100041.67
2019-01-23T12:52:58.353Z,100034.93
2019-01-23T12:55:27.050Z,100046.40
2019-01-23T12:57:55.642Z,100041.47
2019-01-23T13:00:27.012Z,100045.45
2019-01-23T13:02:55.634Z,100048.36
2019-01-23T13:05:24.384Z,100045.02
2019-01-23T13:07:53.067Z,100050.19
2019-01-23T13:10:23.529Z,100056.48
2019-01-23T13:12:52.969Z,100051.97
2019-01-23T13:15:26.045Z,100055.02
2019-01-23T13:17:55.049Z,100048.05
2019-01-23T13:20:25.256Z,100050.03
2019-01-23T13:22:53.815Z,100049.39
2019-01-23T13:25:27.251Z,100054.20
2019-01-23T13:27:57.305Z,100052.83
2019-01-23T13:30:27.015Z,100059.81
2019-01-23T13:32:55.589Z,100055.70
2019-01-23T13:35:29.525Z,100056.75
2019-01-23T13:37:58.041Z,100052.47
2019-01-23T13:40:29.491Z,100050.23
2019-01-23T13:42:58.009Z,100060.04
2019-01-23T13:45:26.708Z,100059.67
2019-01-23T13:47:55.640Z,100059.34
2019-01-23T13:50:24.323Z,100063.47
2019-01-23T13:52:52.992Z,100060.09
2019-01-23T13:55:23.054Z,100054.88
2019-01-23T13:57:51.688Z,100061.53
2019-01-23T14:00:26.505Z,100076.51
2019-01-23T14:02:55.233Z,100072.42
2019-01-23T14:05:23.835Z,100074.75
2019-01-23T14:07:52.447Z,100072.53
2019-01-23T14:10:21.123Z,100071.41
2019-01-23T14:12:49.641Z,100079.16
2019-01-23T14:15:26.792Z,100078.27
2019-01-23T14:17:55.444Z,100076.92
2019-01-23T14:20:26.894Z,100080.92
2019-01-23T14:22:55.457Z,100085.95
2019-01-23T14:25:24.045Z,100092.08
2019-01-23T14:27:52.614Z,100093.64
2019-01-23T14:30:26.662Z,100098.02
2019-01-23T14:32:55.296Z,100099.32
2019-01-23T14:35:23.987Z,100096.81
2019-01-23T14:37:52.667Z,100097.03
2019-01-23T14:40:21.353Z,100099.63
2019-01-23T14:42:49.920Z,100111.11
2019-01-23T14:45:19.714Z,100110.23
2019-01-23T14:47:48.478Z,100107.95
2019-01-23T14:50:18.868Z,100114.24
2019-01-23T14:52:52.155Z,100115.17
2019-01-23T14:55:19.416Z,100116.13
2019-01-23T14:57:48.562Z,100117.27
2019-01-23T15:00:29.127Z,100120.81
2019-01-23T15:02:57.768Z,100125.46
2019-01-23T15:05:26.475Z,100129.02
2019-01-23T15:07:55.016Z,100126.41
2019-01-23T15:10:29.089Z,100129.95
2019-01-23T15:12:57.739Z,100127.72
2019-01-23T15:15:26.408Z,100130.69
2019-01-23T15:17:55.596Z,100134.38
2019-01-23T15:20:32.561Z,100134.36
2019-01-23T15:23:01.306Z,100139.88
2019-01-23T15:25:29.994Z,100135.59
2019-01-23T15:27:58.516Z,100136.43
2019-01-23T15:30:27.484Z,100141.09
2019-01-23T15:32:56.121Z,100140.00
2019-01-23T15:35:24.880Z,100146.83
2019-01-23T15:37:53.580Z,100141.17
2019-01-23T15:40:24.661Z,100145.23
2019-01-23T15:42:53.267Z,100156.29
2019-01-23T15:45:22.196Z,100154.83
2019-01-23T15:47:50.829Z,100159.01
2019-01-23T15:50:22.521Z,100157.73
2019-01-23T15:52:51.212Z,100169.93
2019-01-23T15:55:30.800Z,100165.01
2019-01-23T15:57:59.481Z,100168.98
2019-01-23T16:00:30.069Z,100170.06
2019-01-23T16:02:58.726Z,100175.98
2019-01-23T16:05:27.447Z,100172.57
2019-01-23T16:07:56.027Z,100170.98
2019-01-23T16:10:26.475Z,100170.55
2019-01-23T16:12:55.038Z,100170.89
2019-01-23T16:15:25.480Z,100165.00
2019-01-23T16:17:54.136Z,100170.06
2019-01-23T16:20:22.870Z,100177.45
2019-01-23T16:22:51.559Z,100170.59
2019-01-23T16:25:20.363Z,100180.42
2019-01-23T16:27:49.059Z,100185.08
2019-01-23T16:30:35.271Z,100189.20
2019-01-23T16:33:03.857Z,100187.85
2019-01-23T16:35:38.540Z,100199.64
2019-01-23T16:38:03.100Z,100199.09
2019-01-23T16:40:31.628Z,100196.82
2019-01-23T16:43:00.269Z,100203.24
2019-01-23T16:45:29.123Z,100201.38
2019-01-23T16:47:57.737Z,100210.57
2019-01-23T16:50:27.730Z,100203.81
2019-01-23T16:52:56.772Z,100207.44
2019-01-23T16:55:25.386Z,100205.36
2019-01-23T16:57:54.246Z,100208.52
2019-01-23T17:00:25.294Z,100204.55
2019-01-23T17:02:53.847Z,100205.94
2019-01-23T17:05:30.447Z,100211.36
2019-01-23T17:08:00.337Z,100213.59
2019-01-23T17:10:29.368Z,100212.94
2019-01-23T17:12:58.011Z,100220.88
2019-01-23T17:15:26.655Z,100213.77
2019-01-23T17:17:55.318Z,100224.41
2019-01-23T17:20:35.684Z,100224.97
2019-01-23T17:23:04.656Z,100226.65
2019-01-23T17:25:33.256Z,100222.19
2019-01-23T17:28:01.921Z,100223.30
2019-01-23T17:30:30.512Z,100227.74
2019-01-23T17:32:59.143Z,100225.72
2019-01-23T17:35:27.681Z,100227.84
2019-01-23T17:37:56.364Z,100225.88
2019-01-23T17:40:25.439Z,100230.06
2019-01-23T17:42:54.170Z,100228.41
2019-01-23T17:45:37.238Z,100230.56
2019-01-23T17:48:08.314Z,100240.97
2019-01-23T17:50:36.821Z,100242.08
2019-01-23T17:53:05.459Z,100245.25
2019-01-23T17:55:36.271Z,100254.91
2019-01-23T17:58:07.055Z,100252.61
2019-01-23T18:00:37.504Z,100250.64
2019-01-23T18:03:06.219Z,100259.48
2019-01-23T18:05:35.637Z,100244.15
2019-01-23T18:08:04.350Z,100250.86
2019-01-23T18:10:33.088Z,100250.86
2019-01-23T18:13:02.346Z,100251.39
2019-01-23T18:15:34.121Z,100253.44
2019-01-23T18:18:03.162Z,100252.16
2019-01-23T18:20:32.153Z,100252.16
2019-01-23T18:23:00.685Z,100247.50
2019-01-23T18:25:29.549Z,100261.06
2019-01-23T18:27:58.298Z,100250.25
2019-01-23T18:30:30.002Z,100251.55
2019-01-23T18:33:00.269Z,100262.17
2019-01-23T18:35:35.186Z,100270.36
2019-01-23T18:38:09.771Z,100267.55
2019-01-23T18:41:15.794Z,100275.00
2019-01-23T18:43:53.252Z,100270.72
2019-01-23T18:46:33.924Z,100279.49
2019-01-23T18:49:40.408Z,100280.97
2019-01-23T18:52:13.219Z,100283.64
2019-01-23T18:54:42.756Z,100288.77
2019-01-23T18:57:28.440Z,100291.37
2019-01-23T18:59:59.259Z,100295.28
2019-01-23T19:02:27.542Z,100303.09
2019-01-23T19:04:56.203Z,100301.42
2019-01-23T19:07:24.874Z,100309.98
2019-01-23T19:09:53.490Z,100309.61
2019-01-23T19:12:22.991Z,100308.97
2019-01-23T19:14:51.636Z,100317.24
2019-01-23T19:17:20.606Z,100314.06
2019-01-23T19:19:49.248Z,100319.73
2019-01-23T19:22:17.763Z,100323.94
2019-01-23T19:24:46.325Z,100322.25
2019-01-23T19:27:14.953Z,100327.09
2019-01-23T19:29:43.585Z,100327.08
2019-01-23T19:34:42.033Z,100331.56
2019-01-23T19:37:10.624Z,100336.78
2019-01-23T19:39:39.380Z,100333.42
2019-01-23T19:42:07.972Z,100336.31
2019-01-23T19:44:36.617Z,100333.80
2019-01-23T19:47:05.367Z,100334.55
2019-01-23T19:49:34.041Z,100336.94
2019-01-23T19:52:02.488Z,100345.31
2019-01-23T19:54:31.095Z,100349.05
2019-01-23T19:56:59.901Z,100346.27
2019-01-23T19:59:28.647Z,100347.28
2019-01-23T20:01:57.274Z,100357.53
2019-01-23T20:04:25.966Z,100354.72
2019-01-23T20:06:54.670Z,100358.63
2019-01-23T20:09:23.278Z,100362.08
2019-01-23T20:11:51.855Z,100367.28
2019-01-23T20:14:20.485Z,100362.36
2019-01-23T20:16:50.107Z,100367.73
2019-01-23T20:19:18.734Z,100368.03
2019-01-23T20:21:47.425Z,100362.05
2019-01-23T20:24:17.016Z,100364.66
2019-01-23T20:26:45.612Z,100371.92
2019-01-23T20:29:14.248Z,100372.31
2019-01-23T20:31:42.862Z,100375.16
2019-01-23T20:34:11.444Z,100379.73
2019-01-23T20:36:40.908Z,100384.28
2019-01-23T20:39:14.703Z,100376.58
2019-01-23T20:41:43.203Z,100371.53
2019-01-23T20:44:11.802Z,100377.67
2019-01-23T20:46:40.335Z,100372.08
2019-01-23T20:49:08.954Z,100372.30
2019-01-23T20:51:37.698Z,100376.94
2019-01-23T20:54:06.383Z,100378.41
2019-01-23T20:56:35.099Z,100383.46
2019-01-23T20:59:03.652Z,100378.71
2019-01-23T21:01:32.306Z,100382.13
2019-01-23T21:04:01.224Z,100378.47
2019-01-23T21:06:29.864Z,100377.09
2019-01-23T21:08:58.684Z,100383.14
2019-01-23T21:11:27.268Z,100383.97
2019-01-23T21:13:56.126Z,100387.49
2019-01-23T21:16:24.823Z,100388.33
2019-01-23T21:18:53.506Z,100387.12
2019-01-23T21:21:22.270Z,100390.84
2019-01-23T21:23:51.017Z,100395.14
2019-01-23T21:26:19.712Z,100388.03
2019-01-23T21:28:48.344Z,100396.80
2019-01-23T21:31:17.010Z,100394.74
2019-01-23T21:33:45.729Z,100393.24
2019-01-23T21:36:14.355Z,100395.65
2019-01-23T21:38:43.246Z,100390.43
2019-01-23T21:41:12.151Z,100386.36
2019-01-23T21:43:40.750Z,100393.11
2019-01-23T21:46:09.566Z,100400.61
2019-01-23T21:48:38.613Z,100396.91
2019-01-23T21:51:07.358Z,100393.45
2019-01-23T21:53:36.006Z,100390.02
2019-01-23T21:56:04.868Z,100401.97
2019-01-23T21:58:33.500Z,100404.20
2019-01-23T22:01:02.289Z,100407.34
2019-01-23T22:03:30.909Z,100402.89
2019-01-23T22:05:59.574Z,100413.37
2019-01-23T22:08:28.231Z,100412.72
2019-01-23T22:10:56.904Z,100409.25
2019-01-23T22:13:26.093Z,100410.06
2019-01-23T22:15:54.787Z,100407.45
2019-01-23T22:18:23.401Z,100405.30
2019-01-23T22:20:52.028Z,100413.76
2019-01-23T22:23:20.987Z,100411.27
2019-01-23T22:25:49.568Z,100413.41
2019-01-23T22:28:18.628Z,100416.61
2019-01-23T22:30:47.310Z,100422.89
2019-01-23T22:33:15.965Z,100424.51
2019-01-23T22:35:44.586Z,100430.72
2019-01-23T22:38:13.191Z,100426.78
2019-01-23T22:40:41.901Z,100431.44
2019-01-23T22:43:14.938Z,100433.02
2019-01-23T22:45:40.974Z,100434.80
2019-01-23T22:48:09.586Z,100427.15
2019-01-23T22:50:38.115Z,100435.17
2019-01-23T22:53:06.845Z,100428.86
2019-01-23T22:55:35.432Z,100433.73
2019-01-23T22:58:04.003Z,100437.78
2019-01-23T23:00:52.207Z,100437.97
2019-01-23T23:03:20.777Z,100436.56
2019-01-23T23:05:49.677Z,100427.71
2019-01-23T23:08:18.384Z,100443.56
2019-01-23T23:10:47.015Z,100445.33
2019-01-23T23:13:15.681Z,100439.61
2019-01-23T23:15:44.363Z,100446.23
2019-01-23T23:18:12.918Z,100445.95
2019-01-23T23:20:41.519Z,100443.49
2019-01-23T23:23:10.369Z,100444.05
2019-01-23T23:25:38.999Z,100447.81
2019-01-23T23:28:07.764Z,100453.94
2019-01-23T23:30:36.389Z,100453.91
2019-01-23T23:33:05.068Z,100454.34
2019-01-23T23:35:33.597Z,100456.48
2019-01-23T23:38:02.174Z,100454.78
2019-01-23T23:40:30.635Z,100457.86
2019-01-23T23:42:59.322Z,100457.30
2019-01-23T23:45:27.941Z,100459.66
2019-01-23T23:47:56.499Z,100455.71
2019-01-23T23:50:25.034Z,100459.81
2019-01-23T23:52:53.586Z,100460.06
2019-01-23T23:55:22.147Z,100464.38
2019-01-23T23:57:50.763Z,100459.47
